F/V Carmalia — FMFK — position and weather

sailwx.info

Track history (hours):
 
Tides and Currents Weather Stations Pressure Air Temp Water Temp Dewpoint Dewpoint Depression Visibility Wind Speed Wind Dir Waves Ship Positions

F/V Carmalia

Last reported at 2017-Mar-23 21:33 UTC. Time now 2017-Mar-24 15:59 UTC.
Position N 47°44' W 003°22'.

Length 17 m.

Type: Fishing. MMSI: 228222900.

Date/timePositionNaut miles runAvg speedWind from/ knotsBaromVisibWave heightAir tempDewpointWater temp
2017-Mar-23 21:33N 47°44' W 003°22'0 0.1
2017-Mar-23 20:33N 47°44' W 003°22'0 0.1
2017-Mar-23 19:33N 47°44' W 003°22'0 0.0
2017-Mar-23 18:33N 47°44' W 003°22'0 0.0
2017-Mar-23 17:33N 47°44' W 003°22'4 3.9
2017-Mar-23 16:33N 47°41' W 003°26'9 9.2
2017-Mar-23 15:33N 47°39' W 003°39'  
2017-Mar-20 13:31N 47°39' W 003°41'8 8.3
2017-Mar-20 12:33N 47°40' W 003°29'6 5.7
2017-Mar-20 11:33N 47°43' W 003°22'0 0.4
2017-Mar-20 10:33N 47°44' W 003°22'0 0.0
2017-Mar-20 09:33N 47°44' W 003°22'0 0.0
2017-Mar-19 20:34N 47°44' W 003°22'0 0.1
2017-Mar-19 19:33N 47°44' W 003°22'0 0.1
2017-Mar-19 18:33N 47°44' W 003°22'0 0.0
2017-Mar-19 17:33N 47°44' W 003°22'0 0.0
2017-Mar-19 16:34N 47°44' W 003°22'0 0.0
2017-Mar-19 15:34N 47°44' W 003°22'6 5.7
2017-Mar-19 14:34N 47°38' W 003°21'10 9.7
2017-Mar-19 13:34N 47°28' W 003°19'10 9.8
2017-Mar-19 12:33N 47°19' W 003°16'10 9.8
2017-Mar-19 11:33N 47°09' W 003°12'10 9.8
2017-Mar-19 10:32N 46°60' W 003°08'9 9.4
2017-Mar-19 09:33N 46°51' W 003°04'10 9.4
2017-Mar-19 08:30N 46°41' W 003°01'67 4.2
2017-Mar-18 16:26N 45°38' W 002°32'1 0.6
2017-Mar-18 15:07N 45°38' W 002°33'4 0.1
2017-Mar-17 04:03N 45°38' W 002°38'  
Track history (hours):
 
Tides and Currents Weather Stations Pressure Air Temp Water Temp Dewpoint Dewpoint Depression Visibility Wind Speed Wind Dir Waves Ship Positions

F/V Carmalia

Last reported at 2017-Mar-23 21:33 UTC. Time now 2017-Mar-24 15:59 UTC.
Position N 47°44' W 003°22'.

Length 17 m.

Type: Fishing. MMSI: 228222900.

Date/timePositionNaut miles runAvg speedWind from/ knotsBaromVisibWave heightAir tempDewpointWater temp
2017-Mar-23 21:33N 47°44' W 003°22'0 0.1
2017-Mar-23 20:33N 47°44' W 003°22'0 0.1
2017-Mar-23 19:33N 47°44' W 003°22'0 0.0
2017-Mar-23 18:33N 47°44' W 003°22'0 0.0
2017-Mar-23 17:33N 47°44' W 003°22'4 3.9
2017-Mar-23 16:33N 47°41' W 003°26'9 9.2
2017-Mar-23 15:33N 47°39' W 003°39'  
2017-Mar-20 13:31N 47°39' W 003°41'8 8.3
2017-Mar-20 12:33N 47°40' W 003°29'6 5.7
2017-Mar-20 11:33N 47°43' W 003°22'0 0.4
2017-Mar-20 10:33N 47°44' W 003°22'0 0.0
2017-Mar-20 09:33N 47°44' W 003°22'0 0.0
2017-Mar-19 20:34N 47°44' W 003°22'0 0.1
2017-Mar-19 19:33N 47°44' W 003°22'0 0.1
2017-Mar-19 18:33N 47°44' W 003°22'0 0.0
2017-Mar-19 17:33N 47°44' W 003°22'0 0.0
2017-Mar-19 16:34N 47°44' W 003°22'0 0.0
2017-Mar-19 15:34N 47°44' W 003°22'6 5.7
2017-Mar-19 14:34N 47°38' W 003°21'10 9.7
2017-Mar-19 13:34N 47°28' W 003°19'10 9.8
2017-Mar-19 12:33N 47°19' W 003°16'10 9.8
2017-Mar-19 11:33N 47°09' W 003°12'10 9.8
2017-Mar-19 10:32N 46°60' W 003°08'9 9.4
2017-Mar-19 09:33N 46°51' W 003°04'10 9.4
2017-Mar-19 08:30N 46°41' W 003°01'67 4.2
2017-Mar-18 16:26N 45°38' W 002°32'1 0.6
2017-Mar-18 15:07N 45°38' W 002°33'4 0.1
2017-Mar-17 04:03N 45°38' W 002°38'  

Dump ship's entire track history